createdAt,value
2019-03-22T00:03:34.029Z,49.43
2019-03-22T00:08:56.091Z,49.77
2019-03-22T00:14:20.138Z,50.29
2019-03-22T00:19:43.528Z,50.89
2019-03-22T00:25:06.407Z,51.45
2019-03-22T00:30:29.460Z,51.97
2019-03-22T00:35:51.046Z,52.72
2019-03-22T00:41:13.656Z,52.85
2019-03-22T00:46:35.566Z,53.71
2019-03-22T00:51:57.561Z,53.84
2019-03-22T00:57:28.402Z,54.18
2019-03-22T01:02:44.048Z,54.41
2019-03-22T01:08:06.464Z,54.66
2019-03-22T01:13:29.203Z,55.20
2019-03-22T01:18:51.174Z,55.27
2019-03-22T01:24:13.226Z,57.13
2019-03-22T01:29:36.050Z,58.83
2019-03-22T01:34:57.741Z,59.21
2019-03-22T01:40:19.632Z,59.40
2019-03-22T01:45:41.541Z,60.25
2019-03-22T01:51:04.259Z,60.27
2019-03-22T01:56:26.915Z,61.28
2019-03-22T02:01:50.662Z,62.12
2019-03-22T02:07:12.900Z,63.32
2019-03-22T02:12:39.351Z,63.14
2019-03-22T02:18:02.262Z,62.23
2019-03-22T02:23:23.947Z,61.20
2019-03-22T02:28:46.541Z,62.95
2019-03-22T02:34:09.384Z,64.03
2019-03-22T02:39:33.227Z,64.97
2019-03-22T02:44:55.852Z,65.20
2019-03-22T02:50:20.542Z,65.72
2019-03-22T02:55:43.153Z,67.47
2019-03-22T03:01:06.616Z,66.39
2019-03-22T03:06:29.149Z,66.90
2019-03-22T03:11:50.902Z,68.06
2019-03-22T03:17:15.463Z,66.66
2019-03-22T03:22:38.195Z,68.23
2019-03-22T03:27:59.799Z,68.06
2019-03-22T03:33:22.466Z,69.33
2019-03-22T03:38:45.383Z,71.04
2019-03-22T03:44:08.133Z,71.99
2019-03-22T03:49:32.990Z,70.42
2019-03-22T03:54:55.638Z,71.75
2019-03-22T04:00:18.004Z,70.85
2019-03-22T04:05:41.327Z,71.01
2019-03-22T04:11:03.492Z,70.48
2019-03-22T04:16:26.518Z,70.25
2019-03-22T04:21:49.872Z,70.75
2019-03-22T04:27:11.526Z,71.09
2019-03-22T04:32:34.395Z,71.66
2019-03-22T04:37:56.162Z,72.61
2019-03-22T04:43:18.879Z,72.61
2019-03-22T04:48:43.252Z,72.67
2019-03-22T04:54:07.163Z,72.58
2019-03-22T04:59:31.548Z,72.61
2019-03-22T05:04:54.034Z,72.62
2019-03-22T05:10:18.280Z,72.35
2019-03-22T05:15:40.126Z,71.89
2019-03-22T05:21:05.592Z,71.46
2019-03-22T05:26:30.993Z,71.18
2019-03-22T05:32:04.665Z,69.47
2019-03-22T05:37:26.898Z,67.80
2019-03-22T05:42:49.012Z,65.75
2019-03-22T05:48:10.610Z,63.71
2019-03-22T05:53:32.312Z,61.70
2019-03-22T05:58:53.945Z,60.57
2019-03-22T06:04:15.597Z,60.14
2019-03-22T06:09:37.712Z,60.91
2019-03-22T06:14:59.228Z,59.61
2019-03-22T06:20:22.111Z,58.42
2019-03-22T06:25:43.818Z,58.23
2019-03-22T06:31:05.630Z,57.07
2019-03-22T06:36:27.806Z,56.19
2019-03-22T06:41:49.666Z,55.41
2019-03-22T06:47:11.383Z,54.36
2019-03-22T06:52:33.186Z,54.41
2019-03-22T06:57:54.933Z,53.73
2019-03-22T07:03:16.769Z,50.92
2019-03-22T07:08:38.418Z,51.61
2019-03-22T07:14:00.306Z,50.18
2019-03-22T07:19:21.680Z,50.07
2019-03-22T07:24:43.583Z,50.37
2019-03-22T07:30:17.656Z,50.07
2019-03-22T07:35:29.998Z,50.84
2019-03-22T07:40:52.725Z,50.14
2019-03-22T07:46:14.420Z,50.94
2019-03-22T07:51:36.130Z,50.31
2019-03-22T07:56:57.842Z,50.60
2019-03-22T08:02:19.544Z,49.56
2019-03-22T08:07:41.172Z,48.69
2019-03-22T08:13:03.117Z,47.97
2019-03-22T08:18:25.111Z,47.94
2019-03-22T08:23:46.956Z,47.15
2019-03-22T08:29:08.797Z,46.62
2019-03-22T08:34:30.505Z,46.00
2019-03-22T08:39:52.264Z,44.92
2019-03-22T08:45:14.583Z,44.13
2019-03-22T08:50:36.269Z,43.77
2019-03-22T08:55:57.906Z,43.52
2019-03-22T09:01:19.302Z,42.90
2019-03-22T09:06:41.347Z,42.76
2019-03-22T09:12:03.150Z,42.59
2019-03-22T09:17:25.089Z,42.21
2019-03-22T09:22:46.797Z,41.19
2019-03-22T09:28:10.363Z,39.56
2019-03-22T09:33:32.440Z,39.31
2019-03-22T09:38:54.172Z,40.03
2019-03-22T09:44:16.152Z,39.77
2019-03-22T09:49:37.940Z,40.42
2019-03-22T09:55:12.825Z,40.20
2019-03-22T10:00:31.263Z,40.01
2019-03-22T10:05:52.745Z,39.78
2019-03-22T10:11:14.752Z,39.94
2019-03-22T10:16:36.669Z,39.16
2019-03-22T10:21:58.989Z,39.28
2019-03-22T10:27:20.690Z,38.68
2019-03-22T10:32:42.631Z,39.33
2019-03-22T10:38:06.323Z,38.72
2019-03-22T10:43:27.902Z,38.53
2019-03-22T10:48:49.778Z,37.56
2019-03-22T10:54:11.552Z,38.18
2019-03-22T10:59:33.272Z,37.15
2019-03-22T11:04:54.965Z,38.24
2019-03-22T11:10:16.850Z,37.92
2019-03-22T11:15:47.922Z,37.42
2019-03-22T11:21:05.450Z,37.99
2019-03-22T11:26:25.918Z,36.57
2019-03-22T11:31:47.954Z,35.89
2019-03-22T11:37:09.545Z,37.15
2019-03-22T11:42:31.160Z,36.98
2019-03-22T11:47:53.227Z,35.59
2019-03-22T11:53:14.760Z,35.46
2019-03-22T11:58:36.499Z,35.60
2019-03-22T12:03:58.268Z,35.76
2019-03-22T12:09:20.142Z,35.58
2019-03-22T12:14:42.159Z,35.46
2019-03-22T12:20:06.263Z,35.21
2019-03-22T12:25:27.806Z,34.81
2019-03-22T12:30:49.510Z,34.47
2019-03-22T12:36:10.985Z,34.60
2019-03-22T12:41:33.050Z,35.70
2019-03-22T12:46:54.723Z,35.72
2019-03-22T12:52:16.394Z,35.19
2019-03-22T12:57:41.086Z,34.90
2019-03-22T13:03:03.353Z,34.62
2019-03-22T13:08:28.319Z,34.66
2019-03-22T13:13:50.445Z,34.99
2019-03-22T13:19:12.443Z,36.15
2019-03-22T13:24:34.366Z,34.85
2019-03-22T13:29:58.226Z,34.55
2019-03-22T13:35:20.239Z,34.05
2019-03-22T13:40:42.496Z,34.34
2019-03-22T13:46:04.458Z,33.65
2019-03-22T13:51:26.263Z,32.93
2019-03-22T13:56:48.284Z,33.73
2019-03-22T14:02:09.783Z,34.08
2019-03-22T14:07:31.757Z,34.48
2019-03-22T14:12:53.777Z,33.44
2019-03-22T14:18:15.831Z,33.80
2019-03-22T14:23:38.138Z,34.24
2019-03-22T14:28:59.802Z,34.64
2019-03-22T14:34:22.049Z,35.10
2019-03-22T14:39:43.659Z,35.30
2019-03-22T14:45:05.281Z,35.50
2019-03-22T14:50:26.853Z,35.92
2019-03-22T14:55:48.556Z,36.25
2019-03-22T15:01:10.270Z,36.26
2019-03-22T15:06:33.296Z,36.82
2019-03-22T15:11:54.952Z,37.50
2019-03-22T15:17:54.340Z,38.06
2019-03-22T15:23:36.365Z,37.80
2019-03-22T15:29:18.061Z,38.57
2019-03-22T15:34:59.573Z,39.45
2019-03-22T15:40:21.264Z,39.89
2019-03-22T15:45:43.135Z,42.09
2019-03-22T15:51:04.603Z,42.69
2019-03-22T15:56:26.201Z,43.30
2019-03-22T16:01:48.312Z,44.71
2019-03-22T16:07:09.826Z,44.08
2019-03-22T16:12:31.586Z,37.83
2019-03-22T16:17:53.163Z,42.12
2019-03-22T16:23:14.965Z,44.48
2019-03-22T16:28:36.815Z,42.04
2019-03-22T16:33:58.512Z,45.43
2019-03-22T16:39:20.251Z,45.27
2019-03-22T16:44:42.305Z,45.16
2019-03-22T16:50:09.375Z,45.19
2019-03-22T16:55:31.109Z,44.88
2019-03-22T17:00:52.981Z,45.08
2019-03-22T17:06:14.607Z,45.69
2019-03-22T17:11:36.891Z,44.80
2019-03-22T17:16:58.761Z,44.07
2019-03-22T17:22:20.458Z,42.71
2019-03-22T17:27:42.208Z,41.65
2019-03-22T17:33:04.478Z,41.32
2019-03-22T17:38:26.106Z,41.73
2019-03-22T17:43:49.163Z,42.19
2019-03-22T17:49:10.875Z,41.67
2019-03-22T17:54:33.112Z,41.78
2019-03-22T17:59:54.829Z,43.00
2019-03-22T18:05:16.759Z,43.35
2019-03-22T18:10:38.288Z,42.34
2019-03-22T18:16:00.076Z,42.07
2019-03-22T18:21:22.018Z,41.61
2019-03-22T18:26:43.851Z,41.37
2019-03-22T18:32:05.874Z,41.94
2019-03-22T18:37:27.828Z,42.15
2019-03-22T18:42:49.665Z,42.26
2019-03-22T18:48:11.339Z,43.05
2019-03-22T18:53:33.134Z,43.94
2019-03-22T18:58:54.538Z,45.13
2019-03-22T19:04:16.262Z,46.69
2019-03-22T19:09:38.346Z,46.91
2019-03-22T19:15:00.381Z,47.49
2019-03-22T19:20:22.541Z,47.32
2019-03-22T19:25:44.610Z,47.96
2019-03-22T19:31:07.054Z,48.60
2019-03-22T19:36:29.381Z,49.72
2019-03-22T19:41:51.181Z,50.84
2019-03-22T19:47:13.453Z,51.29
2019-03-22T19:52:35.485Z,51.43
2019-03-22T19:57:57.816Z,51.84
2019-03-22T20:03:19.913Z,51.31
2019-03-22T20:08:41.863Z,51.55
2019-03-22T20:14:03.532Z,52.03
2019-03-22T20:19:25.710Z,52.40
2019-03-22T20:24:49.149Z,52.82
2019-03-22T20:30:12.741Z,53.13
2019-03-22T20:35:35.695Z,53.14
2019-03-22T20:40:59.854Z,53.72
2019-03-22T20:46:21.730Z,54.20
2019-03-22T20:51:43.712Z,54.16
2019-03-22T20:57:05.572Z,54.25
2019-03-22T21:02:27.247Z,54.83
2019-03-22T21:07:53.129Z,54.66
2019-03-22T21:13:15.037Z,55.29
2019-03-22T21:18:36.548Z,55.92
2019-03-22T21:23:59.315Z,56.01
2019-03-22T21:29:21.203Z,56.79
2019-03-22T21:34:44.114Z,57.08
2019-03-22T21:40:06.880Z,57.48
2019-03-22T21:45:29.400Z,57.13
2019-03-22T21:50:51.038Z,57.20
2019-03-22T21:56:12.814Z,57.56
2019-03-22T22:01:34.601Z,57.58
2019-03-22T22:06:56.474Z,58.08
2019-03-22T22:12:18.126Z,58.07
2019-03-22T22:17:40.199Z,58.52
2019-03-22T22:23:02.252Z,59.03
2019-03-22T22:28:23.683Z,58.76
2019-03-22T22:33:47.796Z,58.26
2019-03-22T22:39:09.812Z,57.33
2019-03-22T22:44:31.262Z,57.40
2019-03-22T22:49:53.101Z,57.02
2019-03-22T22:55:14.718Z,57.74
2019-03-22T23:00:36.445Z,57.83
2019-03-22T23:06:09.109Z,58.59
2019-03-22T23:11:22.357Z,58.75
2019-03-22T23:16:44.171Z,59.80
2019-03-22T23:22:05.761Z,60.15
2019-03-22T23:27:27.373Z,60.39
2019-03-22T23:32:49.277Z,59.90
2019-03-22T23:38:11.722Z,59.38
2019-03-22T23:43:33.594Z,58.22
2019-03-22T23:48:55.395Z,58.54
2019-03-22T23:54:17.078Z,58.38
2019-03-22T23:59:39.196Z,57.89
